Drummond Island, MI

7:45 PM EDT on July 27, 2017 (GMT -0400)
Drummond Island

Weather History for KDRM - May, 2013

Change the Weather History Date:

Friday, May 24, 2013

  Actual Average (KCIU) Record (KCIU)
Temperature  
Mean Temperature 44 °F -  
Max Temperature 53 °F 66 °F 87 °F (1980)
Min Temperature 36 °F 40 °F 30 °F (1983)
Degree Days  
Heating Degree Days 20    
Moisture  
Dew Point 30 °F    
Average Humidity 59    
Maximum Humidity 72    
Minimum Humidity 46    
Precipitation  
Precipitation 0.00 in - - ()
Sea Level Pressure  
Sea Level Pressure 30.31 in    
Wind  
Wind Speed 8 mph (NNW)    
Max Wind Speed 16 mph    
Max Gust Speed 25 mph    
Visibility 10 miles    
Events      
Averages and records for this station are not official NWS values.
T = Trace of Precipitation, MM = Missing Value Source: NWS Daily Summary

Daily Weather History Graph

Daily Weather History Graph

Search for Another Location

Airport or City:

Trip Planner

Search our weather history database for the weather conditions in past years. The results will help you decide how hot, cold, wet, or windy it might be!

Date:

Astronomy

May. 24, 2013 Rise Set
Actual Time 5:53 AM EDT 9:10 PM EDT
Civil Twilight 5:16 AM EDT 9:47 PM EDT
Nautical Twilight 4:29 AM EDT 10:35 PM EDT
Astronomical Twilight 3:30 AM EDT 11:35 PM EDT
Moon 8:50 PM EDT (5/24) 5:27 AM EDT (5/24)
Length of Visible Light 16h 30m
Length of Day
15h 17m
Full, 100% of the Moon is Illuminated
May 24
Full
May 25
Full
May 31
Last Quarter
Jun 8
New
Jun 16
First Quarter

Hourly Weather History & Observations

Time (EDT) Temp. Windchill Dew Point Humidity Pressure Visibility Wind Dir Wind Speed Gust Speed Precip Events Conditions
12:15 AM 38.7 °F 32.9 °F 28.6 °F 67% 30.23 in 10.0 mi NNE 8.1 mph - N/A   Scattered Clouds
12:36 AM 38.3 °F 31.9 °F 28.0 °F 67% 30.25 in 10.0 mi North 9.2 mph - N/A   Scattered Clouds
12:56 AM 38.7 °F 32.9 °F 28.2 °F 66% 30.25 in 10.0 mi North 8.1 mph - N/A   Mostly Cloudy
1:15 AM 38.3 °F 29.3 °F 28.2 °F 67% 30.25 in 10.0 mi North 16.1 mph 25.3 mph N/A   Scattered Clouds
1:36 AM 37.8 °F 32.5 °F 27.3 °F 66% 30.26 in 10.0 mi NNE 6.9 mph 16.1 mph N/A   Scattered Clouds
1:56 AM 38.3 °F 31.4 °F 28.2 °F 67% 30.25 in 10.0 mi North 10.4 mph 18.4 mph N/A   Overcast
2:16 AM 37.6 °F 31.6 °F 28.4 °F 69% 30.25 in 10.0 mi North 8.1 mph - N/A   Overcast
2:36 AM 37.8 °F 31.8 °F 28.2 °F 68% 30.26 in 10.0 mi NNE 8.1 mph 20.7 mph N/A   Overcast
2:55 AM 37.4 °F 32.8 °F 27.0 °F 66% 30.26 in 10.0 mi NNE 5.8 mph - N/A   Overcast
3:16 AM 37.2 °F 30.0 °F 26.6 °F 65% 30.25 in 10.0 mi North 10.4 mph 17.3 mph N/A   Mostly Cloudy
3:36 AM 37.4 °F 33.8 °F 27.3 °F 67% 30.26 in 10.0 mi NNE 4.6 mph - N/A   Overcast
3:55 AM 37.2 °F 31.2 °F 26.4 °F 65% 30.27 in 10.0 mi NNE 8.1 mph - N/A   Overcast
4:16 AM 37.0 °F 33.3 °F 27.0 °F 67% 30.28 in 10.0 mi North 4.6 mph - N/A   Overcast
4:35 AM 36.9 °F 30.1 °F 26.1 °F 65% 30.28 in 10.0 mi North 9.2 mph - N/A   Mostly Cloudy
4:56 AM 36.7 °F 29.9 °F 26.4 °F 66% 30.29 in 10.0 mi North 9.2 mph 16.1 mph N/A   Mostly Cloudy
5:15 AM 36.5 °F 30.3 °F 26.2 °F 66% 30.29 in 10.0 mi North 8.1 mph 18.4 mph N/A   Scattered Clouds
5:36 AM 36.5 °F 30.3 °F 25.9 °F 65% 30.30 in 10.0 mi North 8.1 mph - N/A   Scattered Clouds
5:56 AM 36.5 °F 29.7 °F 26.1 °F 66% 30.30 in 10.0 mi North 9.2 mph 16.1 mph N/A   Scattered Clouds
6:15 AM 36.5 °F 29.7 °F 26.4 °F 67% 30.31 in 10.0 mi North 9.2 mph - N/A   Scattered Clouds
6:36 AM 36.9 °F 32.2 °F 26.2 °F 65% 30.32 in 10.0 mi NNE 5.8 mph - N/A   Mostly Cloudy
6:56 AM 37.0 °F 34.5 °F 26.8 °F 66% 30.33 in 10.0 mi NNE 3.5 mph - N/A   Scattered Clouds
7:15 AM 38.1 °F 35.7 °F 27.0 °F 64% 30.33 in 10.0 mi NNE 3.5 mph - N/A   Mostly Cloudy
7:36 AM 37.8 °F 30.7 °F 26.6 °F 64% 30.34 in 10.0 mi North 10.4 mph - N/A   Mostly Cloudy
7:56 AM 38.5 °F 32.1 °F 26.6 °F 62% 30.34 in 10.0 mi NNE 9.2 mph 16.1 mph N/A   Clear
8:15 AM 39.2 °F 33.0 °F 26.6 °F 61% 30.35 in 10.0 mi NNE 9.2 mph 18.4 mph N/A   Clear
8:36 AM 39.6 °F 33.0 °F 27.0 °F 61% 30.36 in 10.0 mi North 10.4 mph - N/A   Clear
8:56 AM 40.1 °F 34.1 °F 27.3 °F 60% 30.36 in 10.0 mi North 9.2 mph 16.1 mph N/A   Clear
9:16 AM 40.8 °F 34.5 °F 28.2 °F 61% 30.36 in 10.0 mi North 10.4 mph - N/A   Clear
9:36 AM 40.8 °F 34.5 °F 28.0 °F 60% 30.37 in 10.0 mi North 10.4 mph - N/A   Clear
9:55 AM 41.7 °F 36.7 °F 28.8 °F 60% 30.37 in 10.0 mi North 8.1 mph - N/A   Clear
10:16 AM 42.4 °F 37.0 °F 28.9 °F 59% 30.37 in 10.0 mi North 9.2 mph - N/A   Clear
10:35 AM 42.8 °F 38.6 °F 28.2 °F 56% 30.37 in 10.0 mi North 6.9 mph - N/A   Clear
10:56 AM 43.7 °F 39.1 °F 29.1 °F 57% 30.37 in 10.0 mi NNE 8.1 mph - N/A   Clear
11:16 AM 44.4 °F 42.0 °F 29.1 °F 55% 30.36 in 10.0 mi NNE 4.6 mph - N/A   Clear
11:35 AM 45.1 °F 41.4 °F 28.8 °F 53% 30.36 in 10.0 mi NNE 6.9 mph - N/A   Clear
11:56 AM 45.9 °F 42.9 °F 29.7 °F 53% 30.36 in 10.0 mi North 5.8 mph - N/A   Clear
12:16 PM 46.4 °F 45.2 °F 29.8 °F 53% 30.36 in 10.0 mi NE 3.5 mph - N/A   Clear
12:35 PM 46.2 °F 44.1 °F 29.7 °F 53% 30.35 in 10.0 mi North 4.6 mph - N/A   Clear
12:56 PM 48.0 °F - 30.6 °F 51% 30.35 in 10.0 mi NNW 4.6 mph - N/A   Clear
1:15 PM 48.7 °F - 30.6 °F 50% 30.35 in 10.0 mi West 3.5 mph - N/A   Clear
1:36 PM 49.6 °F - 29.5 °F 46% 30.35 in 10.0 mi West 4.6 mph - N/A   Clear
1:56 PM 49.8 °F - 31.3 °F 49% 30.34 in 10.0 mi West 5.8 mph - N/A   Clear
2:16 PM 49.8 °F - 30.9 °F 48% 30.34 in 10.0 mi WNW 4.6 mph - N/A   Clear
2:36 PM 50.9 °F - 32.4 °F 49% 30.34 in 10.0 mi WNW 6.9 mph - N/A   Clear
2:55 PM 51.3 °F - 32.9 °F 50% 30.34 in 10.0 mi WSW 5.8 mph - N/A   Clear
3:16 PM 50.0 °F - 32.5 °F 51% 30.34 in 10.0 mi SW 6.9 mph - N/A   Clear
3:36 PM 50.9 °F - 33.4 °F 51% 30.34 in 10.0 mi WSW 8.1 mph - N/A   Clear
3:55 PM 51.4 °F - 33.6 °F 51% 30.33 in 10.0 mi SSW 10.4 mph - N/A   Clear
4:16 PM 52.0 °F - 34.2 °F 51% 30.33 in 10.0 mi SW 5.8 mph - N/A   Clear
4:36 PM 51.8 °F - 34.3 °F 51% 30.32 in 10.0 mi WSW 8.1 mph - N/A   Clear
4:55 PM 51.8 °F - 34.3 °F 51% 30.32 in 10.0 mi SW 8.1 mph - N/A   Clear
5:16 PM 52.0 °F - 35.4 °F 53% 30.31 in 10.0 mi WSW 5.8 mph - N/A   Clear
5:36 PM 53.4 °F - 35.6 °F 51% 30.31 in 10.0 mi West 5.8 mph - N/A   Clear
5:56 PM 53.4 °F - 33.8 °F 47% 30.31 in 10.0 mi WNW 8.1 mph - N/A   Clear
6:16 PM 52.9 °F - 33.3 °F 47% 30.30 in 10.0 mi WNW 8.1 mph - N/A   Clear
6:35 PM 53.1 °F - 32.5 °F 46% 30.30 in 10.0 mi WNW 8.1 mph - N/A   Clear
6:56 PM 52.0 °F - 33.4 °F 49% 30.30 in 10.0 mi WNW 8.1 mph - N/A   Clear
7:16 PM 51.6 °F - 32.4 °F 48% 30.30 in 10.0 mi NNW 4.6 mph - N/A   Clear
7:35 PM 50.9 °F - 33.4 °F 51% 30.30 in 10.0 mi WNW 8.1 mph - N/A   Clear
7:56 PM 49.8 °F - 33.1 °F 53% 30.29 in 10.0 mi NW 6.9 mph - N/A   Clear
8:16 PM 49.1 °F - 33.3 °F 54% 30.30 in 10.0 mi WNW 6.9 mph - N/A   Clear
8:35 PM 48.0 °F - 32.9 °F 56% 30.30 in 10.0 mi WNW 5.8 mph - N/A   Clear
8:56 PM 46.8 °F - 33.8 °F 61% 30.30 in 10.0 mi WNW 5.8 mph - N/A   Clear
9:15 PM 45.9 °F 42.9 °F 33.8 °F 63% 30.30 in 10.0 mi WNW 5.8 mph - N/A   Clear
9:36 PM 45.0 °F 41.2 °F 34.0 °F 65% 30.31 in 10.0 mi NW 6.9 mph - N/A   Clear
9:56 PM 44.2 °F 41.0 °F 33.8 °F 67% 30.31 in 10.0 mi WNW 5.8 mph - N/A   Clear
10:15 PM 43.7 °F 40.3 °F 33.3 °F 67% 30.31 in 10.0 mi WNW 5.8 mph - N/A   Clear
10:36 PM 42.4 °F 40.7 °F 32.9 °F 69% 30.31 in 10.0 mi NW 3.5 mph - N/A   Clear
10:56 PM 42.3 °F 39.4 °F 32.0 °F 67% 30.32 in 10.0 mi NW 4.6 mph - N/A   Clear
11:16 PM 42.3 °F 38.6 °F 32.4 °F 68% 30.32 in 10.0 mi NW 5.8 mph - N/A   Clear
11:36 PM 41.9 °F 39.0 °F 32.4 °F 69% 30.33 in 10.0 mi WNW 4.6 mph - N/A   Clear
11:55 PM 41.4 °F 38.4 °F 32.9 °F 72% 30.33 in 10.0 mi NW 4.6 mph - N/A   Clear